createdAt,value
2023-02-18T00:04:37.038Z,11.30
2023-02-18T00:10:55.497Z,11.30
2023-02-18T00:17:14.204Z,11.40
2023-02-18T00:23:08.575Z,11.50
2023-02-18T00:29:03.228Z,11.50
2023-02-18T00:35:21.672Z,11.60
2023-02-18T00:41:40.112Z,11.60
2023-02-18T00:47:34.453Z,11.50
2023-02-18T00:53:29.551Z,11.50
2023-02-18T00:59:47.984Z,11.50
2023-02-18T01:06:09.001Z,11.50
2023-02-18T01:12:03.655Z,11.50
2023-02-18T01:17:59.120Z,11.50
2023-02-18T01:24:17.595Z,11.60
2023-02-18T01:30:37.068Z,11.70
2023-02-18T01:36:31.419Z,11.70
2023-02-18T01:42:27.458Z,11.60
2023-02-18T01:48:55.537Z,11.60
2023-02-18T01:55:13.882Z,11.60
2023-02-18T02:01:08.299Z,11.60
2023-02-18T02:07:02.808Z,11.60
2023-02-18T02:13:37.712Z,11.50
2023-02-18T02:20:14.897Z,11.50
2023-02-18T02:26:21.408Z,11.40
2023-02-18T02:32:39.541Z,11.40
2023-02-18T02:39:03.643Z,11.40
2023-02-18T02:45:24.388Z,11.40
2023-02-18T02:51:20.610Z,11.20
2023-02-18T02:57:18.103Z,11.10
2023-02-18T03:03:42.461Z,10.90
2023-02-18T03:10:00.901Z,10.80
2023-02-18T03:15:58.092Z,10.60
2023-02-18T03:21:54.313Z,10.50
2023-02-18T03:28:15.973Z,10.40
2023-02-18T03:34:35.885Z,10.50
2023-02-18T03:40:33.356Z,10.50
2023-02-18T03:46:28.736Z,10.50
2023-02-18T03:52:47.323Z,10.50
2023-02-18T03:59:05.706Z,10.60
2023-02-18T04:05:00.299Z,10.60
2023-02-18T04:10:55.781Z,10.60
2023-02-18T04:17:15.289Z,10.60
2023-02-18T04:23:33.665Z,10.60
2023-02-18T04:29:28.037Z,10.60
2023-02-18T04:35:23.595Z,10.60
2023-02-18T04:41:42.151Z,10.50
2023-02-18T04:48:00.768Z,10.60
2023-02-18T04:53:55.175Z,10.60
2023-02-18T04:59:49.683Z,10.60
2023-02-18T05:06:08.512Z,10.60
2023-02-18T05:12:27.110Z,10.60
2023-02-18T05:18:21.452Z,10.60
2023-02-18T05:24:15.919Z,10.60
2023-02-18T05:30:35.531Z,10.50
2023-02-18T05:36:53.923Z,10.40
2023-02-18T05:42:48.280Z,10.30
2023-02-18T05:48:42.805Z,10.30
2023-02-18T05:55:01.333Z,10.30
2023-02-18T06:01:20.765Z,10.40
2023-02-18T06:07:16.132Z,10.30
2023-02-18T06:13:10.636Z,10.40
2023-02-18T06:19:29.153Z,10.40
2023-02-18T06:25:48.925Z,10.40
2023-02-18T06:31:43.384Z,10.40
2023-02-18T06:37:40.007Z,10.30
2023-02-18T06:43:58.516Z,10.30
2023-02-18T06:50:17.041Z,10.40
2023-02-18T06:56:11.647Z,10.40
2023-02-18T07:02:06.123Z,10.40
2023-02-18T07:08:24.610Z,10.40
2023-02-18T07:14:43.067Z,10.30
2023-02-18T07:20:37.400Z,10.30
2023-02-18T07:26:31.900Z,10.30
2023-02-18T07:32:50.521Z,10.30
2023-02-18T07:39:08.892Z,10.40
2023-02-18T07:45:03.264Z,10.50
2023-02-18T07:50:57.715Z,10.50
2023-02-18T07:59:06.969Z,10.60
2023-02-18T08:05:26.395Z,10.70
2023-02-18T08:11:20.798Z,10.80
2023-02-18T08:17:15.355Z,10.80
2023-02-18T08:23:33.892Z,10.80
2023-02-18T08:29:52.406Z,10.90
2023-02-18T08:35:46.913Z,11.00
2023-02-18T08:41:41.383Z,11.00
2023-02-18T08:48:18.808Z,11.10
2023-02-18T08:54:38.896Z,11.20
2023-02-18T09:00:33.621Z,11.20
2023-02-18T09:06:28.117Z,11.20
2023-02-18T09:12:46.626Z,11.30
2023-02-18T09:19:05.184Z,11.40
2023-02-18T09:25:01.628Z,11.40
2023-02-18T09:30:56.169Z,11.50
2023-02-18T09:37:15.741Z,11.60
2023-02-18T09:43:38.762Z,11.70
2023-02-18T09:49:35.153Z,11.70
2023-02-18T09:55:31.640Z,11.60
2023-02-18T10:01:52.321Z,11.60
2023-02-18T10:08:31.995Z,11.60
2023-02-18T10:14:26.453Z,11.60
2023-02-18T10:20:23.046Z,11.50
2023-02-18T10:26:41.620Z,11.50
2023-02-18T10:33:18.821Z,11.40
2023-02-18T10:39:23.465Z,11.40
2023-02-18T10:45:41.507Z,11.50
2023-02-18T10:52:00.006Z,11.50
2023-02-18T10:58:28.744Z,11.60
2023-02-18T11:04:25.405Z,11.60
2023-02-18T11:10:24.532Z,11.60
2023-02-18T11:16:44.951Z,11.60
2023-02-18T11:23:06.447Z,11.60
2023-02-18T11:29:06.458Z,11.60
2023-02-18T11:35:03.643Z,11.70
2023-02-18T11:41:42.808Z,11.70
2023-02-18T11:48:02.081Z,11.90
2023-02-18T11:53:59.836Z,11.90
2023-02-18T11:59:55.300Z,11.90
2023-02-18T12:06:25.169Z,12.00
2023-02-18T12:12:55.261Z,12.10
2023-02-18T12:18:49.624Z,12.00
2023-02-18T12:25:08.379Z,12.20
2023-02-18T12:31:45.905Z,12.40
2023-02-18T12:38:23.120Z,12.40
2023-02-18T12:44:30.636Z,12.40
2023-02-18T12:50:38.028Z,12.30
2023-02-18T12:57:34.523Z,12.30
2023-02-18T13:03:52.886Z,12.30
2023-02-18T13:09:53.567Z,12.40
2023-02-18T13:15:56.989Z,12.50
2023-02-18T13:22:16.683Z,12.70
2023-02-18T13:28:36.133Z,12.80
2023-02-18T13:34:49.514Z,12.80
2023-02-18T13:40:43.989Z,12.80
2023-02-18T13:47:03.012Z,12.80
2023-02-18T13:53:22.308Z,12.70
2023-02-18T13:59:25.832Z,12.70
2023-02-18T14:05:22.126Z,12.70
2023-02-18T14:11:47.707Z,12.90
2023-02-18T14:18:15.196Z,12.90
2023-02-18T14:24:12.408Z,13.00
2023-02-18T14:30:18.221Z,12.90
2023-02-18T14:36:39.525Z,12.90
2023-02-18T14:43:01.069Z,13.00
2023-02-18T14:49:04.520Z,12.80
2023-02-18T14:55:00.665Z,12.70
2023-02-18T15:01:30.464Z,12.60
2023-02-18T15:08:15.260Z,12.50
2023-02-18T15:14:12.197Z,12.50
2023-02-18T15:20:09.090Z,12.30
2023-02-18T15:26:27.802Z,12.20
2023-02-18T15:32:50.196Z,12.10
2023-02-18T15:38:44.626Z,12.00
2023-02-18T15:44:39.107Z,11.90
2023-02-18T15:51:02.732Z,11.80
2023-02-18T15:57:27.491Z,11.70
2023-02-18T16:03:26.106Z,11.50
2023-02-18T16:09:27.414Z,11.50
2023-02-18T16:16:00.833Z,11.50
2023-02-18T16:22:25.600Z,11.50
2023-02-18T16:28:24.212Z,11.40
2023-02-18T16:34:19.403Z,11.30
2023-02-18T16:40:39.905Z,11.30
2023-02-18T16:46:58.791Z,11.30
2023-02-18T16:52:53.204Z,11.30
2023-02-18T16:58:47.707Z,11.30
2023-02-18T17:05:14.327Z,11.30
2023-02-18T17:11:39.193Z,11.30
2023-02-18T17:17:33.617Z,11.30
2023-02-18T17:23:28.120Z,11.20
2023-02-18T17:29:46.684Z,11.30
2023-02-18T17:36:05.213Z,11.30
2023-02-18T17:42:00.588Z,11.30
2023-02-18T17:47:57.072Z,11.30
2023-02-18T17:54:17.148Z,11.20
2023-02-18T18:00:40.624Z,11.30
2023-02-18T18:06:37.002Z,11.20
2023-02-18T18:12:32.387Z,11.20
2023-02-18T18:19:02.882Z,11.20
2023-02-18T18:25:32.646Z,11.20
2023-02-18T18:31:27.135Z,11.20
2023-02-18T18:37:21.672Z,11.20
2023-02-18T18:43:40.552Z,11.20
2023-02-18T18:49:58.927Z,11.30
2023-02-18T18:55:55.393Z,11.20
2023-02-18T19:01:49.884Z,11.20
2023-02-18T19:08:08.914Z,11.20
2023-02-18T19:14:27.427Z,11.20
2023-02-18T19:20:22.776Z,11.10
2023-02-18T19:26:17.374Z,11.10
2023-02-18T19:32:35.904Z,11.00
2023-02-18T19:38:54.457Z,11.00
2023-02-18T19:44:48.822Z,10.90
2023-02-18T19:50:43.711Z,10.80
2023-02-18T19:57:05.220Z,10.80
2023-02-18T20:03:23.542Z,10.80
2023-02-18T20:09:18.891Z,10.90
2023-02-18T20:15:13.422Z,10.80
2023-02-18T20:21:46.225Z,10.80
2023-02-18T20:28:04.918Z,11.10
2023-02-18T20:34:01.276Z,10.70
2023-02-18T20:39:55.778Z,10.70
2023-02-18T20:46:16.913Z,10.60
2023-02-18T20:52:37.971Z,10.60
2023-02-18T20:58:32.453Z,10.50
2023-02-18T21:04:26.990Z,10.50
2023-02-18T21:10:45.466Z,10.60
2023-02-18T21:17:04.029Z,10.60
2023-02-18T21:22:59.372Z,10.60
2023-02-18T21:28:57.025Z,10.50
2023-02-18T21:35:17.232Z,10.50
2023-02-18T21:41:35.791Z,10.40
2023-02-18T21:47:31.158Z,10.40
2023-02-18T21:53:26.185Z,10.40
2023-02-18T21:59:45.427Z,10.40
2023-02-18T22:06:03.844Z,10.40
2023-02-18T22:11:58.206Z,10.40
2023-02-18T22:17:52.696Z,10.40
2023-02-18T22:24:23.200Z,10.40
2023-02-18T22:30:41.570Z,10.50
2023-02-18T22:36:35.913Z,10.50
2023-02-18T22:42:30.362Z,10.60
2023-02-18T22:48:48.906Z,10.60
2023-02-18T22:55:07.367Z,10.70
2023-02-18T23:01:01.901Z,10.80
2023-02-18T23:06:57.047Z,10.80
2023-02-18T23:13:15.596Z,10.90
2023-02-18T23:19:34.094Z,10.90
2023-02-18T23:25:28.469Z,10.80
2023-02-18T23:31:24.964Z,10.90
2023-02-18T23:38:02.232Z,10.90
2023-02-18T23:44:21.575Z,11.00
2023-02-18T23:50:17.095Z,10.90
2023-02-18T23:56:21.283Z,10.90
